Terminal Aerodrome Forecast
Issued by NWS

Home | Current Version | Previous Version | Text Only | Print | Product List | Glossary On
Versions: 1 2 3 4 5 6 7 8 9 10 11 12 13 14 15
000
FTUS43 KDTX 191100
TAFPTK
TAF
KPTK 191120Z 1912/2012 06007KT P6SM SKC
     FM191500 09010KT P6SM SCT250
     FM200600 14006KT P6SM SCT200=

USA.gov is the U.S. government's official web portal to all federal, state and local government web resources and services.